sensor_id;sensor_type;location;lat;lon;timestamp;temperature;humidity
71084;DHT22;58741;52.672;13.548;2022-07-09T00:02:09;14.30;82.30
71084;DHT22;58741;52.672;13.548;2022-07-09T00:04:35;14.20;82.20
71084;DHT22;58741;52.672;13.548;2022-07-09T00:07:00;14.20;82.60
71084;DHT22;58741;52.672;13.548;2022-07-09T00:09:26;14.20;82.70
71084;DHT22;58741;52.672;13.548;2022-07-09T00:11:51;14.10;82.70
71084;DHT22;58741;52.672;13.548;2022-07-09T00:14:18;14.10;82.80
71084;DHT22;58741;52.672;13.548;2022-07-09T00:16:43;14.00;83.50
71084;DHT22;58741;52.672;13.548;2022-07-09T00:19:09;14.00;83.80
71084;DHT22;58741;52.672;13.548;2022-07-09T00:21:34;13.90;84.00
71084;DHT22;58741;52.672;13.548;2022-07-09T00:24:00;13.90;84.10
71084;DHT22;58741;52.672;13.548;2022-07-09T00:26:25;13.90;84.20
71084;DHT22;58741;52.672;13.548;2022-07-09T00:28:51;13.90;84.10
71084;DHT22;58741;52.672;13.548;2022-07-09T00:31:16;13.80;84.40
71084;DHT22;58741;52.672;13.548;2022-07-09T00:33:42;13.80;84.40
71084;DHT22;58741;52.672;13.548;2022-07-09T00:36:07;13.80;84.50
71084;DHT22;58741;52.672;13.548;2022-07-09T00:38:33;13.70;84.40
71084;DHT22;58741;52.672;13.548;2022-07-09T00:40:58;13.70;84.50
71084;DHT22;58741;52.672;13.548;2022-07-09T00:43:24;13.70;84.90
71084;DHT22;58741;52.672;13.548;2022-07-09T00:45:50;13.70;84.90
71084;DHT22;58741;52.672;13.548;2022-07-09T00:48:15;13.60;84.70
71084;DHT22;58741;52.672;13.548;2022-07-09T00:50:43;13.60;85.20
71084;DHT22;58741;52.672;13.548;2022-07-09T00:53:20;13.60;85.10
71084;DHT22;58741;52.672;13.548;2022-07-09T00:55:47;13.50;84.40
71084;DHT22;58741;52.672;13.548;2022-07-09T00:58:15;13.50;85.00
71084;DHT22;58741;52.672;13.548;2022-07-09T01:00:43;13.50;85.00
71084;DHT22;58741;52.672;13.548;2022-07-09T01:03:08;13.50;85.10
71084;DHT22;58741;52.672;13.548;2022-07-09T01:05:34;13.40;85.40
71084;DHT22;58741;52.672;13.548;2022-07-09T01:08:03;13.40;84.80
71084;DHT22;58741;52.672;13.548;2022-07-09T01:10:30;13.40;84.80
71084;DHT22;58741;52.672;13.548;2022-07-09T01:12:55;13.30;85.40
71084;DHT22;58741;52.672;13.548;2022-07-09T01:15:21;13.30;85.50
71084;DHT22;58741;52.672;13.548;2022-07-09T01:17:46;13.30;85.60
71084;DHT22;58741;52.672;13.548;2022-07-09T01:20:12;13.20;86.40
71084;DHT22;58741;52.672;13.548;2022-07-09T01:22:37;13.20;86.20
71084;DHT22;58741;52.672;13.548;2022-07-09T01:25:05;13.20;86.60
71084;DHT22;58741;52.672;13.548;2022-07-09T01:27:37;13.10;86.20
71084;DHT22;58741;52.672;13.548;2022-07-09T01:30:04;13.10;86.10
71084;DHT22;58741;52.672;13.548;2022-07-09T01:32:30;13.10;86.10
71084;DHT22;58741;52.672;13.548;2022-07-09T01:34:55;13.00;85.70
71084;DHT22;58741;52.672;13.548;2022-07-09T01:37:21;13.00;86.20
71084;DHT22;58741;52.672;13.548;2022-07-09T01:39:46;13.00;86.00
71084;DHT22;58741;52.672;13.548;2022-07-09T01:42:18;13.00;86.20
71084;DHT22;58741;52.672;13.548;2022-07-09T01:44:47;12.90;86.00
71084;DHT22;58741;52.672;13.548;2022-07-09T01:47:14;12.90;86.20
71084;DHT22;58741;52.672;13.548;2022-07-09T01:49:42;12.90;86.10
71084;DHT22;58741;52.672;13.548;2022-07-09T01:52:09;12.80;85.90
71084;DHT22;58741;52.672;13.548;2022-07-09T01:54:34;12.80;86.40
71084;DHT22;58741;52.672;13.548;2022-07-09T01:57:00;12.80;86.00
71084;DHT22;58741;52.672;13.548;2022-07-09T01:59:26;12.70;86.10
71084;DHT22;58741;52.672;13.548;2022-07-09T02:01:51;12.70;86.50
71084;DHT22;58741;52.672;13.548;2022-07-09T02:04:17;12.70;86.60
71084;DHT22;58741;52.672;13.548;2022-07-09T02:06:42;12.60;86.90
71084;DHT22;58741;52.672;13.548;2022-07-09T02:09:08;12.60;87.00
71084;DHT22;58741;52.672;13.548;2022-07-09T02:11:33;12.60;86.80
71084;DHT22;58741;52.672;13.548;2022-07-09T02:13:58;12.50;86.90
71084;DHT22;58741;52.672;13.548;2022-07-09T02:16:24;12.50;86.90
71084;DHT22;58741;52.672;13.548;2022-07-09T02:18:50;12.50;86.90
71084;DHT22;58741;52.672;13.548;2022-07-09T02:21:16;12.40;86.80
71084;DHT22;58741;52.672;13.548;2022-07-09T02:23:41;12.40;87.00
71084;DHT22;58741;52.672;13.548;2022-07-09T02:26:07;12.40;87.40
71084;DHT22;58741;52.672;13.548;2022-07-09T02:28:32;12.30;87.60
71084;DHT22;58741;52.672;13.548;2022-07-09T02:30:58;12.30;87.80
71084;DHT22;58741;52.672;13.548;2022-07-09T02:33:23;12.30;87.30
71084;DHT22;58741;52.672;13.548;2022-07-09T02:35:49;12.20;87.60
71084;DHT22;58741;52.672;13.548;2022-07-09T02:38:14;12.20;87.20
71084;DHT22;58741;52.672;13.548;2022-07-09T02:40:40;12.20;87.40
71084;DHT22;58741;52.672;13.548;2022-07-09T02:43:06;12.10;86.90
71084;DHT22;58741;52.672;13.548;2022-07-09T02:45:31;12.10;86.90
71084;DHT22;58741;52.672;13.548;2022-07-09T02:47:56;12.10;86.80
71084;DHT22;58741;52.672;13.548;2022-07-09T02:50:22;12.00;86.90
71084;DHT22;58741;52.672;13.548;2022-07-09T02:52:48;12.00;87.00
71084;DHT22;58741;52.672;13.548;2022-07-09T02:55:13;12.00;87.60
71084;DHT22;58741;52.672;13.548;2022-07-09T02:57:39;11.90;88.80
71084;DHT22;58741;52.672;13.548;2022-07-09T03:00:05;11.90;88.70
71084;DHT22;58741;52.672;13.548;2022-07-09T03:02:31;11.90;89.20
71084;DHT22;58741;52.672;13.548;2022-07-09T03:04:56;11.90;89.70
71084;DHT22;58741;52.672;13.548;2022-07-09T03:07:22;11.90;89.40
71084;DHT22;58741;52.672;13.548;2022-07-09T03:09:48;11.90;89.30
71084;DHT22;58741;52.672;13.548;2022-07-09T03:12:14;11.90;89.90
71084;DHT22;58741;52.672;13.548;2022-07-09T03:14:39;11.90;89.20
71084;DHT22;58741;52.672;13.548;2022-07-09T03:17:05;11.80;89.00
71084;DHT22;58741;52.672;13.548;2022-07-09T03:19:30;11.80;89.20
71084;DHT22;58741;52.672;13.548;2022-07-09T03:21:56;11.80;90.10
71084;DHT22;58741;52.672;13.548;2022-07-09T03:24:21;11.80;90.30
71084;DHT22;58741;52.672;13.548;2022-07-09T03:26:47;11.80;90.40
71084;DHT22;58741;52.672;13.548;2022-07-09T03:29:13;11.90;90.10
71084;DHT22;58741;52.672;13.548;2022-07-09T03:31:38;11.80;90.70
71084;DHT22;58741;52.672;13.548;2022-07-09T03:34:04;11.90;91.00
71084;DHT22;58741;52.672;13.548;2022-07-09T03:36:31;11.90;90.80
71084;DHT22;58741;52.672;13.548;2022-07-09T03:38:56;12.00;90.90
71084;DHT22;58741;52.672;13.548;2022-07-09T03:41:22;12.00;90.70
71084;DHT22;58741;52.672;13.548;2022-07-09T03:43:47;12.10;91.00
71084;DHT22;58741;52.672;13.548;2022-07-09T03:46:13;12.10;90.80
71084;DHT22;58741;52.672;13.548;2022-07-09T03:48:38;12.10;90.70
71084;DHT22;58741;52.672;13.548;2022-07-09T03:51:04;12.10;90.60
71084;DHT22;58741;52.672;13.548;2022-07-09T03:53:30;12.20;90.90
71084;DHT22;58741;52.672;13.548;2022-07-09T03:55:55;12.20;90.90
71084;DHT22;58741;52.672;13.548;2022-07-09T03:58:21;12.20;91.00
71084;DHT22;58741;52.672;13.548;2022-07-09T04:00:46;12.30;91.00
71084;DHT22;58741;52.672;13.548;2022-07-09T04:03:12;12.30;91.00
71084;DHT22;58741;52.672;13.548;2022-07-09T04:05:37;12.30;91.00
71084;DHT22;58741;52.672;13.548;2022-07-09T04:08:03;12.30;91.00
71084;DHT22;58741;52.672;13.548;2022-07-09T04:10:29;12.40;90.70
71084;DHT22;58741;52.672;13.548;2022-07-09T04:12:54;12.40;91.10
71084;DHT22;58741;52.672;13.548;2022-07-09T04:15:20;12.50;90.90
71084;DHT22;58741;52.672;13.548;2022-07-09T04:17:46;12.50;90.70
71084;DHT22;58741;52.672;13.548;2022-07-09T04:20:11;12.50;90.90
71084;DHT22;58741;52.672;13.548;2022-07-09T04:22:37;12.60;90.80
71084;DHT22;58741;52.672;13.548;2022-07-09T04:25:03;12.60;90.70
71084;DHT22;58741;52.672;13.548;2022-07-09T04:27:28;12.60;90.70
71084;DHT22;58741;52.672;13.548;2022-07-09T04:29:54;12.70;90.70
71084;DHT22;58741;52.672;13.548;2022-07-09T04:32:20;12.70;90.70
71084;DHT22;58741;52.672;13.548;2022-07-09T04:34:45;12.80;90.50
71084;DHT22;58741;52.672;13.548;2022-07-09T04:37:11;12.80;90.50
71084;DHT22;58741;52.672;13.548;2022-07-09T04:39:36;12.80;90.50
71084;DHT22;58741;52.672;13.548;2022-07-09T04:42:02;12.80;90.50
71084;DHT22;58741;52.672;13.548;2022-07-09T04:44:27;12.90;90.50
71084;DHT22;58741;52.672;13.548;2022-07-09T04:46:53;12.90;90.30
71084;DHT22;58741;52.672;13.548;2022-07-09T04:49:18;12.90;90.20
71084;DHT22;58741;52.672;13.548;2022-07-09T04:51:44;13.00;90.30
71084;DHT22;58741;52.672;13.548;2022-07-09T04:54:09;13.00;90.20
71084;DHT22;58741;52.672;13.548;2022-07-09T04:56:35;13.10;90.10
71084;DHT22;58741;52.672;13.548;2022-07-09T04:59:01;13.10;90.20
71084;DHT22;58741;52.672;13.548;2022-07-09T05:01:28;13.10;90.10
71084;DHT22;58741;52.672;13.548;2022-07-09T05:03:55;13.20;90.10
71084;DHT22;58741;52.672;13.548;2022-07-09T05:06:20;13.30;90.40
71084;DHT22;58741;52.672;13.548;2022-07-09T05:08:46;13.30;90.10
71084;DHT22;58741;52.672;13.548;2022-07-09T05:11:13;13.30;90.00
71084;DHT22;58741;52.672;13.548;2022-07-09T05:13:38;13.40;90.00
71084;DHT22;58741;52.672;13.548;2022-07-09T05:16:07;13.40;89.90
71084;DHT22;58741;52.672;13.548;2022-07-09T05:18:34;13.40;90.00
71084;DHT22;58741;52.672;13.548;2022-07-09T05:20:59;13.50;89.90
71084;DHT22;58741;52.672;13.548;2022-07-09T05:23:25;13.60;90.00
71084;DHT22;58741;52.672;13.548;2022-07-09T05:25:50;13.60;90.00
71084;DHT22;58741;52.672;13.548;2022-07-09T05:28:16;13.60;89.30
71084;DHT22;58741;52.672;13.548;2022-07-09T05:30:42;13.70;89.30
71084;DHT22;58741;52.672;13.548;2022-07-09T05:33:07;13.70;89.30
71084;DHT22;58741;52.672;13.548;2022-07-09T05:35:33;13.80;89.50
71084;DHT22;58741;52.672;13.548;2022-07-09T05:37:59;13.80;89.00
71084;DHT22;58741;52.672;13.548;2022-07-09T05:40:25;13.80;89.40
71084;DHT22;58741;52.672;13.548;2022-07-09T05:42:50;13.90;89.40
71084;DHT22;58741;52.672;13.548;2022-07-09T05:45:16;13.90;89.40
71084;DHT22;58741;52.672;13.548;2022-07-09T05:47:42;14.00;88.70
71084;DHT22;58741;52.672;13.548;2022-07-09T05:50:08;14.00;88.80
71084;DHT22;58741;52.672;13.548;2022-07-09T05:52:33;14.10;88.40
71084;DHT22;58741;52.672;13.548;2022-07-09T05:54:59;14.20;88.70
71084;DHT22;58741;52.672;13.548;2022-07-09T05:57:24;14.20;87.80
71084;DHT22;58741;52.672;13.548;2022-07-09T05:59:50;14.20;88.20
71084;DHT22;58741;52.672;13.548;2022-07-09T06:02:16;14.30;88.00
71084;DHT22;58741;52.672;13.548;2022-07-09T06:04:42;14.30;88.30
71084;DHT22;58741;52.672;13.548;2022-07-09T06:07:08;14.30;88.20
71084;DHT22;58741;52.672;13.548;2022-07-09T06:09:34;14.40;88.20
71084;DHT22;58741;52.672;13.548;2022-07-09T06:12:00;14.50;88.00
71084;DHT22;58741;52.672;13.548;2022-07-09T06:14:25;14.50;88.20
71084;DHT22;58741;52.672;13.548;2022-07-09T06:16:51;14.60;88.00
71084;DHT22;58741;52.672;13.548;2022-07-09T06:19:16;14.70;88.20
71084;DHT22;58741;52.672;13.548;2022-07-09T06:21:42;14.70;88.10
71084;DHT22;58741;52.672;13.548;2022-07-09T06:24:07;14.80;89.00
71084;DHT22;58741;52.672;13.548;2022-07-09T06:26:33;14.90;87.50
71084;DHT22;58741;52.672;13.548;2022-07-09T06:28:59;14.90;87.00
71084;DHT22;58741;52.672;13.548;2022-07-09T06:31:25;15.00;87.80
71084;DHT22;58741;52.672;13.548;2022-07-09T06:33:51;15.10;87.90
71084;DHT22;58741;52.672;13.548;2022-07-09T06:36:17;15.20;86.50
71084;DHT22;58741;52.672;13.548;2022-07-09T06:38:43;15.20;86.10
71084;DHT22;58741;52.672;13.548;2022-07-09T06:41:26;15.30;86.10
71084;DHT22;58741;52.672;13.548;2022-07-09T06:43:52;15.30;87.30
71084;DHT22;58741;52.672;13.548;2022-07-09T06:46:17;15.40;86.40
71084;DHT22;58741;52.672;13.548;2022-07-09T06:48:43;15.50;85.70
71084;DHT22;58741;52.672;13.548;2022-07-09T06:51:08;15.60;85.00
71084;DHT22;58741;52.672;13.548;2022-07-09T06:53:34;15.60;85.80
71084;DHT22;58741;52.672;13.548;2022-07-09T06:55:59;15.70;86.20
71084;DHT22;58741;52.672;13.548;2022-07-09T06:58:25;15.70;85.60
71084;DHT22;58741;52.672;13.548;2022-07-09T07:00:50;15.80;83.90
71084;DHT22;58741;52.672;13.548;2022-07-09T07:03:16;15.80;84.00
71084;DHT22;58741;52.672;13.548;2022-07-09T07:05:41;15.90;84.10
71084;DHT22;58741;52.672;13.548;2022-07-09T07:08:07;15.90;84.20
71084;DHT22;58741;52.672;13.548;2022-07-09T07:10:32;16.00;83.10
71084;DHT22;58741;52.672;13.548;2022-07-09T07:12:58;15.90;83.00
71084;DHT22;58741;52.672;13.548;2022-07-09T07:15:23;16.10;84.40
71084;DHT22;58741;52.672;13.548;2022-07-09T07:17:49;16.10;83.40
71084;DHT22;58741;52.672;13.548;2022-07-09T07:20:14;16.20;84.10
71084;DHT22;58741;52.672;13.548;2022-07-09T07:22:40;16.30;82.80
71084;DHT22;58741;52.672;13.548;2022-07-09T07:25:06;16.30;84.00
71084;DHT22;58741;52.672;13.548;2022-07-09T07:27:32;16.50;84.10
71084;DHT22;58741;52.672;13.548;2022-07-09T07:29:57;16.50;82.00
71084;DHT22;58741;52.672;13.548;2022-07-09T07:32:23;16.60;83.90
71084;DHT22;58741;52.672;13.548;2022-07-09T07:34:48;16.70;82.70
71084;DHT22;58741;52.672;13.548;2022-07-09T07:37:14;16.80;82.20
71084;DHT22;58741;52.672;13.548;2022-07-09T07:39:39;16.90;82.60
71084;DHT22;58741;52.672;13.548;2022-07-09T07:42:05;16.90;79.90
71084;DHT22;58741;52.672;13.548;2022-07-09T07:44:32;16.90;79.40
71084;DHT22;58741;52.672;13.548;2022-07-09T07:46:58;16.90;80.30
71084;DHT22;58741;52.672;13.548;2022-07-09T07:49:23;17.00;80.80
71084;DHT22;58741;52.672;13.548;2022-07-09T07:51:49;17.10;80.30
71084;DHT22;58741;52.672;13.548;2022-07-09T07:54:14;17.10;80.00
71084;DHT22;58741;52.672;13.548;2022-07-09T07:56:40;17.10;79.70
71084;DHT22;58741;52.672;13.548;2022-07-09T07:59:06;17.20;78.40
71084;DHT22;58741;52.672;13.548;2022-07-09T08:01:32;17.20;78.50
71084;DHT22;58741;52.672;13.548;2022-07-09T08:03:57;17.10;79.50
71084;DHT22;58741;52.672;13.548;2022-07-09T08:06:23;17.10;80.10
71084;DHT22;58741;52.672;13.548;2022-07-09T08:08:49;17.20;79.00
71084;DHT22;58741;52.672;13.548;2022-07-09T08:11:14;17.20;78.10
71084;DHT22;58741;52.672;13.548;2022-07-09T08:13:40;17.20;78.90
71084;DHT22;58741;52.672;13.548;2022-07-09T08:16:06;17.20;78.70
71084;DHT22;58741;52.672;13.548;2022-07-09T08:18:32;17.30;79.90
71084;DHT22;58741;52.672;13.548;2022-07-09T08:20:57;17.30;79.60
71084;DHT22;58741;52.672;13.548;2022-07-09T08:23:23;17.40;78.20
71084;DHT22;58741;52.672;13.548;2022-07-09T08:25:48;17.50;78.70
71084;DHT22;58741;52.672;13.548;2022-07-09T08:28:15;17.50;79.80
71084;DHT22;58741;52.672;13.548;2022-07-09T08:30:41;17.60;79.90
71084;DHT22;58741;52.672;13.548;2022-07-09T08:33:07;17.60;77.90
71084;DHT22;58741;52.672;13.548;2022-07-09T08:35:33;17.60;78.40
71084;DHT22;58741;52.672;13.548;2022-07-09T08:37:58;17.70;79.90
71084;DHT22;58741;52.672;13.548;2022-07-09T08:40:25;17.70;79.00
71084;DHT22;58741;52.672;13.548;2022-07-09T08:42:53;17.80;78.40
71084;DHT22;58741;52.672;13.548;2022-07-09T08:45:20;17.80;80.00
71084;DHT22;58741;52.672;13.548;2022-07-09T08:47:46;17.90;77.30
71084;DHT22;58741;52.672;13.548;2022-07-09T08:50:12;17.90;77.20
71084;DHT22;58741;52.672;13.548;2022-07-09T08:52:40;17.90;78.50
71084;DHT22;58741;52.672;13.548;2022-07-09T08:55:07;18.00;76.60
71084;DHT22;58741;52.672;13.548;2022-07-09T08:57:33;18.00;77.40
71084;DHT22;58741;52.672;13.548;2022-07-09T09:00:03;17.90;78.00
71084;DHT22;58741;52.672;13.548;2022-07-09T09:02:39;18.00;77.40
71084;DHT22;58741;52.672;13.548;2022-07-09T09:05:13;18.00;76.70
71084;DHT22;58741;52.672;13.548;2022-07-09T09:07:39;18.00;78.00
71084;DHT22;58741;52.672;13.548;2022-07-09T09:10:05;18.00;76.90
71084;DHT22;58741;52.672;13.548;2022-07-09T09:12:30;18.00;76.70
71084;DHT22;58741;52.672;13.548;2022-07-09T09:14:56;18.00;78.30
71084;DHT22;58741;52.672;13.548;2022-07-09T09:17:21;18.00;78.50
71084;DHT22;58741;52.672;13.548;2022-07-09T09:19:47;18.00;78.30
71084;DHT22;58741;52.672;13.548;2022-07-09T09:23:48;18.00;75.90
71084;DHT22;58741;52.672;13.548;2022-07-09T09:26:18;17.90;77.00
71084;DHT22;58741;52.672;13.548;2022-07-09T09:29:00;17.90;77.30
71084;DHT22;58741;52.672;13.548;2022-07-09T09:33:53;17.80;79.20
71084;DHT22;58741;52.672;13.548;2022-07-09T09:36:35;17.70;80.40
71084;DHT22;58741;52.672;13.548;2022-07-09T09:41:52;17.40;83.80
71084;DHT22;58741;52.672;13.548;2022-07-09T09:44:20;17.30;85.00
71084;DHT22;58741;52.672;13.548;2022-07-09T09:46:47;17.30;86.10
71084;DHT22;58741;52.672;13.548;2022-07-09T09:49:14;17.20;86.50
71084;DHT22;58741;52.672;13.548;2022-07-09T09:52:05;17.20;87.60
71084;DHT22;58741;52.672;13.548;2022-07-09T09:54:38;17.10;87.20
71084;DHT22;58741;52.672;13.548;2022-07-09T09:57:09;17.10;87.80
71084;DHT22;58741;52.672;13.548;2022-07-09T09:59:43;17.00;88.80
71084;DHT22;58741;52.672;13.548;2022-07-09T10:02:11;17.10;89.00
71084;DHT22;58741;52.672;13.548;2022-07-09T10:04:38;17.10;89.40
71084;DHT22;58741;52.672;13.548;2022-07-09T10:07:05;17.00;90.30
71084;DHT22;58741;52.672;13.548;2022-07-09T10:09:31;17.00;89.20
71084;DHT22;58741;52.672;13.548;2022-07-09T10:11:57;17.00;90.20
71084;DHT22;58741;52.672;13.548;2022-07-09T10:16:49;17.00;90.20
71084;DHT22;58741;52.672;13.548;2022-07-09T10:19:28;17.10;90.40
71084;DHT22;58741;52.672;13.548;2022-07-09T10:21:58;17.10;89.20
71084;DHT22;58741;52.672;13.548;2022-07-09T10:24:32;17.30;90.40
71084;DHT22;58741;52.672;13.548;2022-07-09T10:29:31;17.40;89.20
71084;DHT22;58741;52.672;13.548;2022-07-09T10:31:57;17.50;88.70
71084;DHT22;58741;52.672;13.548;2022-07-09T10:34:48;17.50;89.80
71084;DHT22;58741;52.672;13.548;2022-07-09T10:37:17;17.60;89.30
71084;DHT22;58741;52.672;13.548;2022-07-09T10:39:54;17.70;90.60
71084;DHT22;58741;52.672;13.548;2022-07-09T10:42:22;17.90;87.70
71084;DHT22;58741;52.672;13.548;2022-07-09T10:44:49;18.00;85.60
71084;DHT22;58741;52.672;13.548;2022-07-09T10:47:15;18.10;87.10
71084;DHT22;58741;52.672;13.548;2022-07-09T10:49:41;18.20;87.00
71084;DHT22;58741;52.672;13.548;2022-07-09T10:52:09;18.30;88.20
71084;DHT22;58741;52.672;13.548;2022-07-09T10:54:45;18.60;87.70
71084;DHT22;58741;52.672;13.548;2022-07-09T10:57:13;18.80;87.20
71084;DHT22;58741;52.672;13.548;2022-07-09T10:59:38;19.10;87.10
71084;DHT22;58741;52.672;13.548;2022-07-09T11:02:04;19.30;85.20
71084;DHT22;58741;52.672;13.548;2022-07-09T11:04:31;19.50;82.20
71084;DHT22;58741;52.672;13.548;2022-07-09T11:06:58;19.50;82.30
71084;DHT22;58741;52.672;13.548;2022-07-09T11:09:27;19.60;80.80
71084;DHT22;58741;52.672;13.548;2022-07-09T11:11:56;19.80;81.60
71084;DHT22;58741;52.672;13.548;2022-07-09T11:14:22;19.80;77.30
71084;DHT22;58741;52.672;13.548;2022-07-09T11:16:57;19.90;80.30
71084;DHT22;58741;52.672;13.548;2022-07-09T11:19:24;20.00;76.80
71084;DHT22;58741;52.672;13.548;2022-07-09T11:21:50;20.10;80.50
71084;DHT22;58741;52.672;13.548;2022-07-09T11:24:25;20.30;79.40
71084;DHT22;58741;52.672;13.548;2022-07-09T11:26:50;20.60;77.20
71084;DHT22;58741;52.672;13.548;2022-07-09T11:29:17;20.70;78.10
71084;DHT22;58741;52.672;13.548;2022-07-09T11:31:47;20.80;76.60
71084;DHT22;58741;52.672;13.548;2022-07-09T11:34:14;20.90;75.00
71084;DHT22;58741;52.672;13.548;2022-07-09T11:36:42;21.00;73.00
71084;DHT22;58741;52.672;13.548;2022-07-09T11:39:08;21.00;72.70
71084;DHT22;58741;52.672;13.548;2022-07-09T11:41:43;21.20;74.20
71084;DHT22;58741;52.672;13.548;2022-07-09T11:44:09;21.30;72.00
71084;DHT22;58741;52.672;13.548;2022-07-09T11:46:35;21.40;70.20
71084;DHT22;58741;52.672;13.548;2022-07-09T11:49:12;21.40;71.40
71084;DHT22;58741;52.672;13.548;2022-07-09T11:51:38;21.40;70.20
71084;DHT22;58741;52.672;13.548;2022-07-09T11:54:05;21.30;70.40
71084;DHT22;58741;52.672;13.548;2022-07-09T11:56:43;21.20;68.40
71084;DHT22;58741;52.672;13.548;2022-07-09T11:59:13;21.10;69.20
71084;DHT22;58741;52.672;13.548;2022-07-09T12:01:39;21.00;68.70
71084;DHT22;58741;52.672;13.548;2022-07-09T12:04:05;20.90;69.30
71084;DHT22;58741;52.672;13.548;2022-07-09T12:06:31;20.90;70.20
71084;DHT22;58741;52.672;13.548;2022-07-09T12:09:03;20.90;70.00
71084;DHT22;58741;52.672;13.548;2022-07-09T12:11:30;20.90;69.90
71084;DHT22;58741;52.672;13.548;2022-07-09T12:13:56;20.80;66.30
71084;DHT22;58741;52.672;13.548;2022-07-09T12:16:21;20.70;67.80
71084;DHT22;58741;52.672;13.548;2022-07-09T12:18:47;20.60;67.60
71084;DHT22;58741;52.672;13.548;2022-07-09T12:21:12;20.60;67.30
71084;DHT22;58741;52.672;13.548;2022-07-09T12:23:38;20.60;67.70
71084;DHT22;58741;52.672;13.548;2022-07-09T12:26:04;20.50;68.70
71084;DHT22;58741;52.672;13.548;2022-07-09T12:28:29;20.50;69.10
71084;DHT22;58741;52.672;13.548;2022-07-09T12:30:55;20.50;70.00
71084;DHT22;58741;52.672;13.548;2022-07-09T12:33:20;20.50;72.70
71084;DHT22;58741;52.672;13.548;2022-07-09T12:35:46;20.40;75.20
71084;DHT22;58741;52.672;13.548;2022-07-09T12:38:11;20.30;76.20
71084;DHT22;58741;52.672;13.548;2022-07-09T12:40:37;20.20;77.60
71084;DHT22;58741;52.672;13.548;2022-07-09T12:43:02;20.20;79.10
71084;DHT22;58741;52.672;13.548;2022-07-09T12:45:28;20.20;81.40
71084;DHT22;58741;52.672;13.548;2022-07-09T12:47:53;20.20;80.10
71084;DHT22;58741;52.672;13.548;2022-07-09T12:50:19;20.20;80.50
71084;DHT22;58741;52.672;13.548;2022-07-09T12:52:44;20.20;81.10
71084;DHT22;58741;52.672;13.548;2022-07-09T12:55:10;20.30;81.10
71084;DHT22;58741;52.672;13.548;2022-07-09T12:57:35;20.30;80.50
71084;DHT22;58741;52.672;13.548;2022-07-09T13:00:03;20.40;81.60
71084;DHT22;58741;52.672;13.548;2022-07-09T13:02:28;20.40;81.50
71084;DHT22;58741;52.672;13.548;2022-07-09T13:04:54;20.40;80.00
71084;DHT22;58741;52.672;13.548;2022-07-09T13:07:20;20.50;78.60
71084;DHT22;58741;52.672;13.548;2022-07-09T13:09:45;20.50;77.70
71084;DHT22;58741;52.672;13.548;2022-07-09T13:12:11;20.40;79.90
71084;DHT22;58741;52.672;13.548;2022-07-09T13:14:36;20.50;78.70
71084;DHT22;58741;52.672;13.548;2022-07-09T13:17:02;20.50;77.40
71084;DHT22;58741;52.672;13.548;2022-07-09T13:19:28;20.60;76.00
71084;DHT22;58741;52.672;13.548;2022-07-09T13:21:53;20.60;78.40
71084;DHT22;58741;52.672;13.548;2022-07-09T13:24:18;20.70;76.40
71084;DHT22;58741;52.672;13.548;2022-07-09T13:26:44;20.80;76.50
71084;DHT22;58741;52.672;13.548;2022-07-09T13:29:09;20.90;78.10
71084;DHT22;58741;52.672;13.548;2022-07-09T13:31:35;21.00;76.00
71084;DHT22;58741;52.672;13.548;2022-07-09T13:34:00;21.00;72.90
71084;DHT22;58741;52.672;13.548;2022-07-09T13:36:26;20.90;74.20
71084;DHT22;58741;52.672;13.548;2022-07-09T13:38:52;20.90;72.70
71084;DHT22;58741;52.672;13.548;2022-07-09T13:41:17;20.80;72.90
71084;DHT22;58741;52.672;13.548;2022-07-09T13:43:44;20.80;70.90
71084;DHT22;58741;52.672;13.548;2022-07-09T13:46:11;20.70;72.10
71084;DHT22;58741;52.672;13.548;2022-07-09T13:48:37;20.70;70.50
71084;DHT22;58741;52.672;13.548;2022-07-09T13:51:02;20.70;70.70
71084;DHT22;58741;52.672;13.548;2022-07-09T13:53:28;20.70;70.80
71084;DHT22;58741;52.672;13.548;2022-07-09T13:55:55;20.70;71.30
71084;DHT22;58741;52.672;13.548;2022-07-09T13:58:21;20.80;70.50
71084;DHT22;58741;52.672;13.548;2022-07-09T14:00:46;20.90;71.60
71084;DHT22;58741;52.672;13.548;2022-07-09T14:03:12;21.10;72.20
71084;DHT22;58741;52.672;13.548;2022-07-09T14:05:37;21.30;69.30
71084;DHT22;58741;52.672;13.548;2022-07-09T14:08:03;21.40;70.40
71084;DHT22;58741;52.672;13.548;2022-07-09T14:10:29;21.50;68.10
71084;DHT22;58741;52.672;13.548;2022-07-09T14:12:55;21.50;65.60
71084;DHT22;58741;52.672;13.548;2022-07-09T14:15:20;21.40;67.70
71084;DHT22;58741;52.672;13.548;2022-07-09T14:17:46;21.40;67.40
71084;DHT22;58741;52.672;13.548;2022-07-09T14:20:11;21.30;68.60
71084;DHT22;58741;52.672;13.548;2022-07-09T14:22:37;21.30;69.40
71084;DHT22;58741;52.672;13.548;2022-07-09T14:25:03;21.30;69.50
71084;DHT22;58741;52.672;13.548;2022-07-09T14:27:29;21.30;71.00
71084;DHT22;58741;52.672;13.548;2022-07-09T14:29:54;21.50;73.90
71084;DHT22;58741;52.672;13.548;2022-07-09T14:32:20;21.70;68.00
71084;DHT22;58741;52.672;13.548;2022-07-09T14:34:46;21.90;69.10
71084;DHT22;58741;52.672;13.548;2022-07-09T14:37:11;22.00;69.00
71084;DHT22;58741;52.672;13.548;2022-07-09T14:39:37;22.20;69.30
71084;DHT22;58741;52.672;13.548;2022-07-09T14:42:03;22.30;66.30
71084;DHT22;58741;52.672;13.548;2022-07-09T14:44:29;22.50;67.40
71084;DHT22;58741;52.672;13.548;2022-07-09T14:46:56;22.50;63.80
71084;DHT22;58741;52.672;13.548;2022-07-09T14:49:24;22.60;66.10
71084;DHT22;58741;52.672;13.548;2022-07-09T14:56:45;22.40;64.50
71084;DHT22;58741;52.672;13.548;2022-07-09T14:59:11;22.30;65.80
71084;DHT22;58741;52.672;13.548;2022-07-09T15:01:38;22.20;64.70
71084;DHT22;58741;52.672;13.548;2022-07-09T15:04:04;22.00;65.50
71084;DHT22;58741;52.672;13.548;2022-07-09T15:06:29;22.00;67.60
71084;DHT22;58741;52.672;13.548;2022-07-09T15:08:55;22.00;66.60
71084;DHT22;58741;52.672;13.548;2022-07-09T15:11:20;22.20;66.40
71084;DHT22;58741;52.672;13.548;2022-07-09T15:13:46;22.40;67.70
71084;DHT22;58741;52.672;13.548;2022-07-09T15:16:11;22.60;61.70
71084;DHT22;58741;52.672;13.548;2022-07-09T15:18:37;22.80;63.20
71084;DHT22;58741;52.672;13.548;2022-07-09T15:21:02;22.90;63.00
71084;DHT22;58741;52.672;13.548;2022-07-09T15:23:30;23.10;62.30
71084;DHT22;58741;52.672;13.548;2022-07-09T15:25:55;23.30;60.20
71084;DHT22;58741;52.672;13.548;2022-07-09T15:28:21;23.50;62.50